Flight Track Log - Related Links

Times and Time Zones

All times are in EDT time to prevent confusion due to time zone crossing. See the CTL337 flight status page for this flight to view local times or setup timezone preferences in your user account.


Time Position Orientation Groundspeed Altitude Reporting Facility
EDT Latitude Longitude Course Direction KTS MPH feet Rate Location/Type
Fri 10:00:04 PM 41.5253 -81.6675 48° Northeast 110 127 1,400  Level Cleveland Center
Fri 10:00:46 PM 41.5381 -81.6483 48° Northeast 112 129 2,300 1,340 Climbing Cleveland Center
Fri 10:01:47 PM 41.5342 -81.6178 100° East 105 121 3,700 1,289 Climbing Cleveland Center
Fri 10:02:47 PM 41.5092 -81.6092 166° South 101 116 4,900 1,140 Climbing Cleveland Center
Fri 10:03:48 PM 41.4781 -81.6031 172° South 124 143 6,000 639 Climbing Cleveland Center
Fri 10:04:49 PM 41.4383 -81.6108 188° South 162 186 6,200 47 Climbing Cleveland Center
Fri 10:05:55 PM 41.3942 -81.6597 220° Southwest 179 206 6,100 -45 Descending Cleveland Center
Fri 10:07:02 PM 41.3561 -81.7036 221° Southwest 174 200 6,100  Level Cleveland Center
Fri 10:07:50 PM 41.3267 -81.7361 220° Southwest 175 201 6,100  Level Cleveland Center
Fri 10:08:51 PM 41.2867 -81.7825 221° Southwest 178 205 6,100 -49 Level Cleveland Center
Fri 10:09:52 PM 41.2467 -81.8231 217° Southwest 180 207 6,000  Descending Cleveland Center
Fri 10:10:46 PM 41.2192 -81.8611 226° Southwest 169 194 6,100 52 Climbing Cleveland Center
Fri 10:11:47 PM 41.1769 -81.8936 210° Southwest 172 198 6,100  Level Cleveland Center
Fri 10:12:41 PM 41.1411 -81.9314 218° Southwest 178 205 6,100  Level Cleveland Center
Fri 10:14:00 PM 41.1015 -81.9907 228° Southwest  Level FlightAware Approximate
Fri 10:16:28 PM 40.9983 -82.0847 217° Southwest 179 206 6,100  Level Indianapolis Center
Fri 10:17:29 PM 40.9586 -82.1233 216° Southwest 177 204 6,100  Level Indianapolis Center
Fri 10:18:30 PM 40.9228 -82.1672 223° Southwest 175 201 6,100  Level Indianapolis Center
Fri 10:19:31 PM 40.8853 -82.2111 222° Southwest 178 205 6,100  Level Indianapolis Center
Fri 10:20:32 PM 40.8461 -82.2528 219° Southwest 178 205 6,100  Level Indianapolis Center
Fri 10:21:00 PM 40.8734 -82.2935 217° Southwest  Level FlightAware Approximate
Fri 10:21:33 PM 40.8081 -82.2953 220° Southwest 178 205 6,100  Level Indianapolis Center
Fri 10:22:34 PM 40.7689 -82.3369 219° Southwest 178 205 5,900 -49 Descending Indianapolis Center
Fri 10:23:35 PM 40.7314 -82.3808 222° Southwest 178 205 6,000 49 Climbing Indianapolis Center
Fri 10:24:36 PM 40.6947 -82.4250 222° Southwest 178 205 6,000  Level Indianapolis Center
Fri 10:25:37 PM 40.6561 -82.4669 219° Southwest 178 205 6,000 -49 Level Indianapolis Center
Fri 10:26:38 PM 40.6181 -82.5097 220° Southwest 178 205 5,900  Descending Indianapolis Center
Fri 10:27:39 PM 40.5808 -82.5517 221° Southwest 175 201 6,000 49 Climbing Indianapolis Center
Fri 10:28:40 PM 40.5439 -82.5939 221° Southwest 174 200 6,000  Level Indianapolis Center
Fri 10:29:41 PM 40.5053 -82.6361 220° Southwest 177 204 6,000  Level Indianapolis Center
Fri 10:30:11 PM 40.4814 -82.6611 219° Southwest 177 204 6,000  Level Indianapolis Center
Fri 10:30:42 PM 40.4653 -82.6761 215° Southwest 179 206 6,000  Level Indianapolis Center
Fri 10:31:12 PM 40.4433 -82.7006 220° Southwest 178 205 6,000  Level Indianapolis Center
Fri 10:31:43 PM 40.4264 -82.7156 214° Southwest 175 201 6,000  Level Indianapolis Center
Fri 10:32:13 PM 40.4028 -82.7453 224° Southwest 186 214 6,000 -98 Level Indianapolis Center
Fri 10:32:44 PM 40.3881 -82.7581 213° Southwest 177 204 5,900 -333 Descending Indianapolis Center
Fri 10:33:07 PM 40.3692 -82.7797 221° Southwest 179 206 5,700 -492 Descending Indianapolis Center
Fri 10:33:45 PM 40.3483 -82.8014 218° Southwest 183 211 5,400 -393 Descending Indianapolis Center
Fri 10:34:08 PM 40.3261 -82.8269 221° Southwest 187 215 5,300 -492 Descending Indianapolis Center
Fri 10:34:46 PM 40.3025 -82.8481 214° Southwest 184 212 4,900 -700 Descending Indianapolis Center
Fri 10:35:08 PM 40.2858 -82.8661 220° Southwest 183 211 4,600 -787 Descending Indianapolis Center
Fri 10:35:47 PM 40.2622 -82.8883 216° Southwest 184 212 4,100 -787 Descending Indianapolis Center
Fri 10:36:09 PM 40.2456 -82.9053 218° Southwest 177 204 3,800 -787 Descending Indianapolis Center
Fri 10:36:48 PM 40.2253 -82.9294 222° Southwest 177 204 3,300 -716 Descending Indianapolis Center
Fri 10:37:16 PM 40.2150 -82.9564 243° Southwest 171 197 3,000 -295 Descending Indianapolis Center
Fri 10:37:49 PM 40.2042 -82.9869 245° Southwest 176 203 3,000  Level Indianapolis Center
Fri 10:38:16 PM 40.1919 -83.0164 241° Southwest 164 189 3,000 98 Level Indianapolis Center
Fri 10:38:50 PM 40.1839 -83.0397 246° West 168 193 3,100 -295 Climbing Indianapolis Center
Fri 10:39:17 PM 40.1719 -83.0658 239° Southwest 157 181 2,700 -1,082 Descending Indianapolis Center
Fri 10:39:51 PM 40.1544 -83.0828 217° Southwest 162 186 2,000 -885 Descending Indianapolis Center
Fri 10:40:18 PM 40.1322 -83.0967 206° Southwest 161 185 1,800 -393 Descending Indianapolis Center
Fri 10:40:52 PM 40.1144 -83.0986 185° South 155 178 1,600 -400 Descending Indianapolis Center
Fri 10:41:18 PM 40.1006 -83.0986 180° South 99 114 1,400 -295 Descending Indianapolis Center
Fri 10:41:53 PM 40.0869 -83.0953 169° South 119 137 1,300 -250 Descending Indianapolis Center
Fri 10:42:54 PM 40.0647 -83.0842 159° South 104 120 1,000 -295 Descending Indianapolis Center
Fri 10:44:00 PM 40.0667 -83.0667 37° Northeast  Level FlightAware Approximate

Login

Don't have an account? Register now (free) for customized features, flight alerts, and more!